Time;durP1;ratioP1;P1;durP2;ratioP2;P2;SDS_P1;SDS_P2;PMS_P1;PMS_P2;Temp;Humidity;BMP_temperature;BMP_pressure;BME280_temperature;BME280_humidity;BME280_pressure;Samples;Min_cycle;Max_cycle;Signal;HPM_P1;HPM_P2
2022/02/11 00:13:44;;;;;;;10.4;14.4;;;;;;;8.5;64;98930;;;;
2022/02/11 00:24:44;;;;;;;10.4;14.4;;;;;;;8.4;64.5;98940;;;;
2022/02/11 00:34:49;;;;;;;11.7;15.8;;;;;;;8.3;65.2;98950;;;;
2022/02/11 00:46:02;;;;;;;11.7;15.8;;;;;;;8.1;67.5;98950;;;;
2022/02/11 01:06:45;;;;;;;12;15.2;;;;;;;7.7;71.2;98960;;;;
2022/02/11 01:16:49;;;;;;;12;15.2;;;;;;;7.6;70.7;98950;;;;
2022/02/11 01:27:57;;;;;;;12;15.2;;;;;;;7.5;70.9;98940;;;;
2022/02/11 01:39:04;;;;;;;13.7;20.3;;;;;;;7.4;70.6;98940;;;;
2022/02/11 01:49:05;;;;;;;13.7;20.3;;;;;;;7.4;70.4;98940;;;;
2022/02/11 01:59:23;;;;;;;13.7;20.3;;;;;;;7.4;70.2;98940;;;;
2022/02/11 02:10:28;;;;;;;18.3;21.1;;;;;;;7.3;70.3;98920;;;;
2022/02/11 02:21:38;;;;;;;18.3;21.1;;;;;;;7.2;70.4;98900;;;;
2022/02/11 02:31:52;;;;;;;13.8;15.5;;;;;;;7.2;70.4;98900;;;;
2022/02/11 03:01:51;;;;;;;13.2;17.5;;;;;;;7.1;70.4;98900;;;;
2022/02/11 03:34:51;;;;;;;11.9;14.3;;;;;;;7.1;70.3;98900;;;;
2022/02/11 03:56:15;;;;;;;11.9;14.3;;;;;;;7.2;70.3;98910;;;;
2022/02/11 04:52:33;;;;;;;12;16.9;;;;;;;7.3;69.5;98910;;;;
2022/02/11 05:07:45;;;;;;;13.7;20.1;;;;;;;7.3;69.3;98920;;;;
2022/02/11 05:18:45;;;;;;;13.7;20.1;;;;;;;7.4;69.1;98910;;;;
2022/02/11 05:29:45;;;;;;;13.7;20.1;;;;;;;7.3;69.1;98910;;;;
2022/02/11 05:40:45;;;;;;;13.1;15.8;;;;;;;7.3;69.5;98900;;;;
2022/02/11 05:50:45;;;;;;;13.1;15.8;;;;;;;7.3;69.4;98900;;;;
2022/02/11 06:01:45;;;;;;;13.3;15.7;;;;;;;7.3;69.2;98900;;;;
2022/02/11 06:11:45;;;;;;;13.3;15.7;;;;;;;7.3;69.2;98900;;;;
2022/02/11 06:21:45;;;;;;;13.3;15.7;;;;;;;7.3;69.5;98910;;;;
2022/02/11 06:32:45;;;;;;;15.2;20.8;;;;;;;7.3;70.9;98910;;;;
2022/02/11 06:42:45;;;;;;;15.2;20.8;;;;;;;7.2;71.8;98910;;;;
2022/02/11 06:52:45;;;;;;;15.2;20.8;;;;;;;7.1;72.6;98900;;;;
2022/02/11 07:03:45;;;;;;;15.1;17.8;;;;;;;7.1;72.6;98910;;;;
2022/02/11 07:13:45;;;;;;;15.1;17.8;;;;;;;7.1;72.7;98910;;;;
2022/02/11 07:24:47;;;;;;;15.1;17.8;;;;;;;7.2;72.5;98900;;;;
2022/02/11 07:35:45;;;;;;;16;18.5;;;;;;;7.2;72.5;98880;;;;
2022/02/11 07:46:45;;;;;;;16;18.5;;;;;;;7.4;71.8;98880;;;;
2022/02/11 07:56:45;;;;;;;16;18.5;;;;;;;7.6;72.1;98880;;;;
2022/02/11 08:07:45;;;;;;;24.8;28.9;;;;;;;7.6;71;98870;;;;
2022/02/11 08:17:45;;;;;;;24.8;28.9;;;;;;;7.8;70.1;98860;;;;
2022/02/11 08:27:47;;;;;;;24.8;28.9;;;;;;;8;69.9;98870;;;;
2022/02/11 08:38:45;;;;;;;13.7;16.9;;;;;;;7.8;68.7;98850;;;;
2022/02/11 08:48:45;;;;;;;13.7;16.9;;;;;;;8.1;68.5;98840;;;;
2022/02/11 08:58:45;;;;;;;13.7;16.9;;;;;;;8.1;68.5;98850;;;;
2022/02/11 09:08:45;;;;;;;12.2;15;;;;;;;8.2;67;98850;;;;
2022/02/11 09:19:47;;;;;;;12.2;15;;;;;;;8.1;67.3;98850;;;;
2022/02/11 09:29:45;;;;;;;12.2;15;;;;;;;8.2;68.6;98840;;;;
2022/02/11 09:39:45;;;;;;;14.5;19.4;;;;;;;8.3;66.6;98840;;;;
2022/02/11 09:50:45;;;;;;;14.5;19.4;;;;;;;8.4;65.4;98830;;;;
2022/02/11 10:00:46;;;;;;;12.1;14.7;;;;;;;8.5;64.9;98830;;;;
2022/02/11 10:10:47;;;;;;;12.1;14.7;;;;;;;8.9;64.4;98830;;;;
2022/02/11 10:20:48;;;;;;;12.1;14.7;;;;;;;8.7;63;98820;;;;
2022/02/11 10:31:45;;;;;;;9.4;13.4;;;;;;;8.8;61.8;98810;;;;
2022/02/11 10:41:46;;;;;;;9.4;13.4;;;;;;;8.8;61.8;98800;;;;
2022/02/11 10:52:46;;;;;;;7.2;10.8;;;;;;;8.6;61.2;98800;;;;
2022/02/11 11:02:45;;;;;;;7.2;10.8;;;;;;;8.7;61.2;98800;;;;
2022/02/11 11:13:48;;;;;;;7.2;10.8;;;;;;;8.4;60.7;98800;;;;
2022/02/11 11:23:45;;;;;;;8.5;12.5;;;;;;;8.5;60.4;98800;;;;
2022/02/11 11:33:45;;;;;;;8.5;12.5;;;;;;;8.6;60.6;98800;;;;
2022/02/11 11:44:45;;;;;;;8.5;12.5;;;;;;;9;59.4;98780;;;;
2022/02/11 11:55:45;;;;;;;6.1;12.7;;;;;;;9.4;57.6;98770;;;;
2022/02/11 12:05:50;;;;;;;6.1;12.7;;;;;;;9.3;57.5;98780;;;;
2022/02/11 12:16:46;;;;;;;6.1;12.7;;;;;;;9.1;58;98780;;;;
2022/02/11 12:27:49;;;;;;;5.3;9.5;;;;;;;8.9;56.6;98780;;;;
2022/02/11 12:36:45;;;;;;;5.3;9.5;;;;;;;8.9;56.4;98780;;;;
2022/02/11 12:47:45;;;;;;;5.3;9.5;;;;;;;8.8;56.7;98780;;;;
2022/02/11 12:58:45;;;;;;;4.3;7.6;;;;;;;8.6;58.5;98790;;;;
2022/02/11 13:09:45;;;;;;;4.3;7.6;;;;;;;8.3;61.6;98810;;;;
2022/02/11 13:19:45;;;;;;;4.5;7.3;;;;;;;8;64.9;98840;;;;
2022/02/11 13:29:46;;;;;;;4.5;7.3;;;;;;;7.9;66.8;98850;;;;
2022/02/11 13:39:45;;;;;;;4.5;7.3;;;;;;;7.8;67.6;98870;;;;
2022/02/11 13:49:51;;;;;;;7.6;12.5;;;;;;;7.6;69.1;98880;;;;
2022/02/11 14:00:45;;;;;;;7.6;12.5;;;;;;;7.3;70.4;98920;;;;
2022/02/11 14:10:46;;;;;;;7.6;12.5;;;;;;;6.8;72.9;98940;;;;
2022/02/11 14:21:45;;;;;;;7.3;9.9;;;;;;;6.2;76.4;98980;;;;
2022/02/11 14:32:45;;;;;;;7.3;9.9;;;;;;;5.2;78.3;99050;;;;
2022/02/11 14:43:45;;;;;;;7.3;9.9;;;;;;;4.9;78.8;99070;;;;
2022/02/11 14:53:45;;;;;;;8.2;11.5;;;;;;;4.6;78.4;99120;;;;
2022/02/11 15:03:45;;;;;;;8.2;11.5;;;;;;;4.1;76.8;99160;;;;
2022/02/11 15:14:45;;;;;;;8.2;11.5;;;;;;;3.8;77.2;99210;;;;
2022/02/11 15:24:48;;;;;;;6.5;9.4;;;;;;;3.6;77.3;99250;;;;
2022/02/11 15:34:45;;;;;;;6.5;9.4;;;;;;;3.5;76.8;99290;;;;
2022/02/11 15:44:45;;;;;;;6.5;9.4;;;;;;;3.3;76.5;99320;;;;
2022/02/11 15:54:45;;;;;;;6.2;8.9;;;;;;;3.2;76.1;99340;;;;
2022/02/11 16:05:45;;;;;;;6.2;8.9;;;;;;;3.2;75;99370;;;;
2022/02/11 16:16:45;;;;;;;6.2;8.9;;;;;;;3.2;75;99400;;;;
2022/02/11 16:27:45;;;;;;;6;8.8;;;;;;;3.2;75.2;99420;;;;
2022/02/11 16:37:45;;;;;;;6;8.8;;;;;;;3.2;75.6;99440;;;;
2022/02/11 16:48:45;;;;;;;6;8.8;;;;;;;3.2;75.5;99450;;;;
2022/02/11 16:58:45;;;;;;;8.6;12;;;;;;;3.1;75.7;99460;;;;
2022/02/11 17:08:45;;;;;;;8.6;12;;;;;;;3.1;75.5;99480;;;;
2022/02/11 17:18:45;;;;;;;11;15.3;;;;;;;3.2;74.9;99480;;;;
2022/02/11 17:28:45;;;;;;;11;15.3;;;;;;;3.1;74;99490;;;;
2022/02/11 17:38:45;;;;;;;11;15.3;;;;;;;3.1;73.9;99500;;;;
2022/02/11 17:49:46;;;;;;;10.5;12.7;;;;;;;3.2;74.1;99510;;;;
2022/02/11 18:00:45;;;;;;;10.5;12.7;;;;;;;3.1;74.4;99520;;;;
2022/02/11 18:11:45;;;;;;;10.5;12.7;;;;;;;3.2;74.1;99520;;;;
2022/02/11 18:22:45;;;;;;;11.1;14.5;;;;;;;3;73.5;99530;;;;
2022/02/11 18:32:45;;;;;;;11.1;14.5;;;;;;;3;73.4;99550;;;;
2022/02/11 18:42:45;;;;;;;11.1;14.5;;;;;;;3;72.9;99570;;;;
2022/02/11 18:53:45;;;;;;;14.7;19;;;;;;;2.9;73.4;99590;;;;
2022/02/11 19:04:48;;;;;;;14.7;19;;;;;;;2.9;73.8;99610;;;;
2022/02/11 19:14:45;;;;;;;14.7;19;;;;;;;2.8;74;99620;;;;
2022/02/11 19:24:49;;;;;;;13.1;16.9;;;;;;;2.5;74.6;99630;;;;
2022/02/11 19:35:45;;;;;;;13.1;16.9;;;;;;;2.2;75.8;99640;;;;
2022/02/11 19:45:46;;;;;;;13.1;16.9;;;;;;;2;76.3;99650;;;;
2022/02/11 19:56:46;;;;;;;16.2;19.1;;;;;;;2.1;76.5;99650;;;;
2022/02/11 20:06:45;;;;;;;16.2;19.1;;;;;;;2.2;76.4;99660;;;;
2022/02/11 20:17:45;;;;;;;16.2;19.1;;;;;;;2.2;76.2;99670;;;;
2022/02/11 20:28:45;;;;;;;17.6;24.3;;;;;;;2.3;75.8;99680;;;;
2022/02/11 20:38:45;;;;;;;17.6;24.3;;;;;;;2.4;75.3;99690;;;;
2022/02/11 20:48:45;;;;;;;19.6;23.4;;;;;;;2.5;74.9;99710;;;;
2022/02/11 20:58:45;;;;;;;19.6;23.4;;;;;;;2.5;74.9;99730;;;;
2022/02/11 21:09:46;;;;;;;19.6;23.4;;;;;;;2.5;75;99730;;;;
2022/02/11 21:19:45;;;;;;;26.5;31.2;;;;;;;2.2;75.6;99730;;;;
2022/02/11 21:29:45;;;;;;;26.5;31.2;;;;;;;2.1;75.5;99740;;;;
2022/02/11 21:39:45;;;;;;;26.5;31.2;;;;;;;2;76.2;99750;;;;
2022/02/11 21:50:47;;;;;;;20.9;26.9;;;;;;;1.8;76.4;99770;;;;
2022/02/11 22:00:46;;;;;;;20.9;26.9;;;;;;;2;76.6;99800;;;;
2022/02/11 22:10:45;;;;;;;20.9;26.9;;;;;;;2.2;77.1;99800;;;;
2022/02/11 22:20:45;;;;;;;23.4;28.6;;;;;;;2.3;77.6;99820;;;;
2022/02/11 22:31:48;;;;;;;23.4;28.6;;;;;;;2.3;78.2;99840;;;;
2022/02/11 22:41:45;;;;;;;23.4;28.6;;;;;;;2.3;78.4;99850;;;;
2022/02/11 23:02:45;;;;;;;22.8;27.8;;;;;;;2.3;78.8;99870;;;;
2022/02/11 23:12:45;;;;;;;22.8;27.8;;;;;;;2.3;78;99880;;;;
2022/02/11 23:22:45;;;;;;;18.4;21.5;;;;;;;2.3;76.9;99900;;;;
2022/02/11 23:33:45;;;;;;;18.4;21.5;;;;;;;2.3;76.2;99890;;;;
2022/02/11 23:43:45;;;;;;;18.4;21.5;;;;;;;2.3;76.4;99910;;;;
2022/02/11 23:54:45;;;;;;;17.1;19.9;;;;;;;2.5;76.4;99910;;;;
